< Typhoon 196117 1961 Season Typhoon 196119 >
Typhoon 196118 (NANCY)
Second Muroto Typhoon
General InformationTrack Information on Google Maps || NewsDisaster Info.ResourceGoogle EarthGE AnimationAtom FeedGeoJSON
Detalied Best Track (Time Zone = UTC)
Year Month Day Hour Lat. Long. Pressure (hPa) Wind (kt) Class Image Chart
1961 9 6 12 7.1 173.0 1006 0 2 -- Chart
1961 9 6 18 7.4 170.8 1006 0 2 -- Chart
1961 9 7 00 7.7 168.6 1006 0 2 -- Chart
1961 9 7 06 7.9 166.6 1004 0 2 -- Chart
1961 9 7 12 8.2 164.7 1002 0 2 -- Chart
1961 9 7 18 8.4 163.2 1000 0 2 -- Chart
1961 9 8 00 8.8 161.6 990 0 9 -- Chart
1961 9 8 06 8.9 160.2 980 0 9 -- Chart
1961 9 8 12 9.0 158.5 975 0 9 -- Chart
1961 9 8 18 9.2 156.8 970 0 9 -- Chart
1961 9 9 00 9.2 155.0 965 0 9 -- Chart
1961 9 9 06 9.5 153.4 945 0 9 -- Chart
1961 9 9 12 9.7 151.6 940 0 9 -- Chart
1961 9 9 18 10.0 150.0 935 0 9 -- Chart
1961 9 10 00 10.5 148.2 930 0 9 -- Chart
1961 9 10 06 11.1 147.1 920 0 9 -- Chart
1961 9 10 12 11.5 145.3 920 0 9 -- Chart
1961 9 10 18 12.0 143.8 920 0 9 -- Chart
1961 9 11 00 12.6 142.4 915 0 9 -- Chart
1961 9 11 06 13.2 141.3 900 0 9 -- Chart
1961 9 11 12 14.0 140.2 900 0 9 -- Chart
1961 9 11 18 14.8 139.0 900 0 9 -- Chart
1961 9 12 00 15.5 137.5 890 0 9 -- Chart
1961 9 12 06 16.2 136.2 890 0 9 -- Chart
1961 9 12 12 17.0 135.0 890 0 9 -- Chart
1961 9 12 18 17.6 133.6 890 0 9 -- Chart
1961 9 13 00 18.3 132.5 890 0 9 -- Chart
1961 9 13 06 19.5 131.3 890 0 9 -- Chart
1961 9 13 12 20.6 130.8 890 0 9 -- Chart
1961 9 13 18 22.0 130.0 890 0 9 -- Chart
1961 9 14 00 23.2 129.3 900 0 9 -- Chart
1961 9 14 06 24.5 128.8 905 0 9 -- Chart
1961 9 14 12 26.1 128.8 910 0 9 -- Chart
1961 9 14 18 27.3 128.9 920 0 9 -- Chart
1961 9 15 00 28.4 129.4 920 0 9 -- Chart
1961 9 15 06 29.0 130.0 920 0 9 -- Chart
1961 9 15 12 29.9 130.9 920 0 9 -- Chart
1961 9 15 18 31.4 132.4 920 0 9 -- Chart
1961 9 16 00 33.2 133.9 925 0 9 -- Chart
1961 9 16 06 35.6 135.9 940 0 9 -- Chart
1961 9 16 12 41.2 139.0 966 0 9 -- Chart
1961 9 16 18 45.0 141.5 960 0 9 -- Chart
1961 9 17 00 48.3 143.8 962 0 9 -- Chart
1961 9 17 06 51.0 146.0 965 0 9 -- Chart
1961 9 17 12 53.0 149.0 962 0 9 -- Chart
1961 9 17 18 54.6 152.0 952 0 6 -- Chart
1961 9 18 00 55.4 154.3 955 0 6 -- Chart
1961 9 18 06 56.0 157.4 962 0 6 -- Chart
1961 9 18 12 57.0 164.0 968 0 6 -- Chart
1961 9 18 18 57.0 168.0 970 0 6 -- Chart
1961 9 19 00 57.4 172.0 972 0 6 -- Chart
1961 9 19 06 58.3 175.0 978 0 6 -- Chart
1961 9 19 12 59.3 176.0 980 0 6 -- Chart
1961 9 19 18 60.5 179.0 986 0 6 -- Chart
1961 9 20 00 61.3 181.6 986 0 6 -- Chart
Japan Meteorological Agency Best Track Data | Correction Date : 1991-07-16
< Typhoon 196117 1961 Season Typhoon 196119 >

Help